Vac, Hungary
Current Conditions -  °F | °C
As of 3:00 PM on Thursday 30 Oct 2014 (Local Time) from LHBP Reporting Station
Broken Clouds Broken Clouds  
Wind Chill: 50°   Ceiling: 3200
Heat Index: 50°   Visibility: 6mi
Dew Point: 37°   Wind: 6mph
Humidity: 62%   Direction: 240°WSW
Pressure: 30.27"   Gusts: NA
Location:  47.79°N, 19.13°E
Report Text: LHBP 301300Z 24005KT 210V270 9999 BKN032 10/03 Q1025 NOSIG
Loading
Personal Weather Stations






























Interactive Weather Map
Tropical Storm Tracking
New forecast layout! Learn more

10-Day Weather Forecast

Advertisements
Track Severe Weather on mobile